createdAt,value
2022-09-22T00:01:33.897Z,99.90
2022-09-22T00:04:06.004Z,99.90
2022-09-22T00:06:37.055Z,99.90
2022-09-22T00:09:08.053Z,99.90
2022-09-22T00:11:37.752Z,99.90
2022-09-22T00:14:09.121Z,99.90
2022-09-22T00:16:39.452Z,99.90
2022-09-22T00:19:07.775Z,99.90
2022-09-22T00:21:35.815Z,99.90
2022-09-22T00:24:07.216Z,99.90
2022-09-22T00:26:35.970Z,99.90
2022-09-22T00:29:04.837Z,99.90
2022-09-22T00:31:32.821Z,99.90
2022-09-22T00:34:00.830Z,99.90
2022-09-22T00:36:29.457Z,99.90
2022-09-22T00:38:59.313Z,99.90
2022-09-22T00:41:30.643Z,99.90
2022-09-22T00:44:30.189Z,99.90
2022-09-22T00:47:04.222Z,99.90
2022-09-22T00:49:39.275Z,99.90
2022-09-22T00:52:07.995Z,99.90
2022-09-22T00:54:36.304Z,99.90
2022-09-22T00:57:09.181Z,99.90
2022-09-22T00:59:38.123Z,99.90
2022-09-22T01:02:06.256Z,99.90
2022-09-22T01:04:34.408Z,99.90
2022-09-22T01:07:03.589Z,99.90
2022-09-22T01:09:33.190Z,99.90
2022-09-22T01:12:01.736Z,99.90
2022-09-22T01:14:43.839Z,99.90
2022-09-22T01:17:18.877Z,99.90
2022-09-22T01:20:12.282Z,99.90
2022-09-22T01:22:57.702Z,99.90
2022-09-22T01:25:48.092Z,99.90
2022-09-22T01:28:42.940Z,99.90
2022-09-22T01:31:18.686Z,99.90
2022-09-22T01:33:52.972Z,99.90
2022-09-22T01:36:26.871Z,99.90
2022-09-22T01:39:03.983Z,99.90
2022-09-22T01:41:51.657Z,99.90
2022-09-22T01:44:27.020Z,99.90
2022-09-22T01:47:02.235Z,99.90
2022-09-22T01:49:33.504Z,99.90
2022-09-22T01:52:04.572Z,99.90
2022-09-22T01:54:35.461Z,99.90
2022-09-22T01:57:11.218Z,99.90
2022-09-22T01:59:43.169Z,99.90
2022-09-22T02:02:18.087Z,99.90
2022-09-22T02:04:49.116Z,99.90
2022-09-22T02:07:24.738Z,99.90
2022-09-22T02:09:53.884Z,99.90
2022-09-22T02:12:21.883Z,99.90
2022-09-22T02:14:50.998Z,99.90
2022-09-22T02:17:21.067Z,99.90
2022-09-22T02:19:49.056Z,99.90
2022-09-22T02:22:17.472Z,99.90
2022-09-22T02:24:47.749Z,99.90
2022-09-22T02:27:25.481Z,99.90
2022-09-22T02:29:58.891Z,99.90
2022-09-22T02:32:29.357Z,99.90
2022-09-22T02:34:58.001Z,99.90
2022-09-22T02:37:34.727Z,99.90
2022-09-22T02:40:10.060Z,99.90
2022-09-22T02:42:43.305Z,99.90
2022-09-22T02:45:16.221Z,99.90
2022-09-22T02:47:51.959Z,99.90
2022-09-22T02:50:23.729Z,99.90
2022-09-22T02:52:53.601Z,99.90
2022-09-22T02:55:21.670Z,99.90
2022-09-22T02:57:49.735Z,99.90
2022-09-22T03:00:17.759Z,99.90
2022-09-22T03:02:47.099Z,99.90
2022-09-22T03:05:15.223Z,99.90
2022-09-22T03:07:43.220Z,99.90
2022-09-22T03:10:11.908Z,99.90
2022-09-22T03:13:02.476Z,99.90
2022-09-22T03:15:30.628Z,99.90
2022-09-22T03:18:00.022Z,99.90
2022-09-22T03:20:28.118Z,99.90
2022-09-22T03:22:56.177Z,99.90
2022-09-22T03:25:24.135Z,99.90
2022-09-22T03:27:52.107Z,99.90
2022-09-22T03:30:20.358Z,99.90
2022-09-22T03:32:48.308Z,99.90
2022-09-22T03:35:17.884Z,99.90
2022-09-22T03:37:46.770Z,99.90
2022-09-22T03:40:14.986Z,99.90
2022-09-22T03:42:43.195Z,99.90
2022-09-22T03:45:13.040Z,99.90
2022-09-22T03:47:41.061Z,99.90
2022-09-22T03:50:09.928Z,99.90
2022-09-22T03:52:40.119Z,99.90
2022-09-22T03:55:09.394Z,99.90
2022-09-22T03:57:37.407Z,99.90
2022-09-22T04:00:06.389Z,99.90
2022-09-22T04:02:34.411Z,99.90
2022-09-22T04:05:02.460Z,99.90
2022-09-22T04:07:30.454Z,99.90
2022-09-22T04:09:59.770Z,99.90
2022-09-22T04:12:27.714Z,99.90
2022-09-22T04:14:55.654Z,99.90
2022-09-22T04:17:23.625Z,99.90
2022-09-22T04:19:51.619Z,99.90
2022-09-22T04:22:19.574Z,99.90
2022-09-22T04:24:47.529Z,99.90
2022-09-22T04:27:20.873Z,99.90
2022-09-22T04:29:49.609Z,99.90
2022-09-22T04:32:18.369Z,99.90
2022-09-22T04:34:46.316Z,99.90
2022-09-22T04:37:14.619Z,99.90
2022-09-22T04:39:42.819Z,99.90
2022-09-22T04:42:10.831Z,99.90
2022-09-22T04:44:40.140Z,99.90
2022-09-22T04:47:08.296Z,99.90
2022-09-22T04:49:36.250Z,99.90
2022-09-22T04:52:04.424Z,99.90
2022-09-22T04:54:32.528Z,99.90
2022-09-22T04:57:00.569Z,99.90
2022-09-22T04:59:29.580Z,99.90
2022-09-22T05:01:58.931Z,99.90
2022-09-22T05:04:26.885Z,99.90
2022-09-22T05:06:54.941Z,99.90
2022-09-22T05:09:22.927Z,99.90
2022-09-22T05:11:50.884Z,99.90
2022-09-22T05:14:24.078Z,99.90
2022-09-22T05:16:54.230Z,99.90
2022-09-22T05:19:23.646Z,99.90
2022-09-22T05:21:52.064Z,99.90
2022-09-22T05:24:20.031Z,99.90
2022-09-22T05:26:48.247Z,99.90
2022-09-22T05:29:18.274Z,99.90
2022-09-22T05:31:46.430Z,99.90
2022-09-22T05:34:14.493Z,99.90
2022-09-22T05:36:43.809Z,99.90
2022-09-22T05:39:11.784Z,99.90
2022-09-22T05:41:39.789Z,99.90
2022-09-22T05:44:07.807Z,99.90
2022-09-22T05:46:35.753Z,99.90
2022-09-22T05:49:03.715Z,99.90
2022-09-22T05:51:31.646Z,99.90
2022-09-22T05:54:01.022Z,99.90
2022-09-22T05:56:29.137Z,99.90
2022-09-22T05:58:57.055Z,99.90
2022-09-22T06:01:25.199Z,99.90
2022-09-22T06:03:53.247Z,99.90
2022-09-22T06:06:21.204Z,99.90
2022-09-22T06:08:49.385Z,99.90
2022-09-22T06:11:18.826Z,99.90
2022-09-22T06:13:48.592Z,99.90
2022-09-22T06:16:16.602Z,99.90
2022-09-22T06:18:46.726Z,99.90
2022-09-22T06:21:14.751Z,99.90
2022-09-22T06:23:43.134Z,99.90
2022-09-22T06:26:11.129Z,99.90
2022-09-22T06:28:40.432Z,99.90
2022-09-22T06:31:08.344Z,99.90
2022-09-22T06:33:36.652Z,99.90
2022-09-22T06:36:07.984Z,99.90
2022-09-22T06:38:35.959Z,99.90
2022-09-22T06:41:06.856Z,99.90
2022-09-22T06:43:37.808Z,99.90
2022-09-22T06:46:12.116Z,99.90
2022-09-22T06:48:40.319Z,99.90
2022-09-22T06:51:11.178Z,99.90
2022-09-22T06:53:40.585Z,99.90
2022-09-22T06:56:08.985Z,99.90
2022-09-22T06:58:58.586Z,99.90
2022-09-22T07:01:31.165Z,99.90
2022-09-22T07:03:59.244Z,99.90
2022-09-22T07:06:27.249Z,99.90
2022-09-22T07:08:55.217Z,99.90
2022-09-22T07:11:23.798Z,99.90
2022-09-22T07:13:53.505Z,99.90
2022-09-22T07:16:23.132Z,99.90
2022-09-22T07:18:53.673Z,99.90
2022-09-22T07:21:22.754Z,99.90
2022-09-22T07:23:52.789Z,99.90
2022-09-22T07:26:22.406Z,99.90
2022-09-22T07:28:54.020Z,99.90
2022-09-22T07:31:28.370Z,99.90
2022-09-22T07:34:00.388Z,99.90
2022-09-22T07:36:29.957Z,99.90
2022-09-22T07:38:59.797Z,99.90
2022-09-22T07:41:29.264Z,99.90
2022-09-22T07:44:20.757Z,99.90
2022-09-22T07:46:48.772Z,99.90
2022-09-22T07:49:19.669Z,99.90
2022-09-22T07:51:47.615Z,99.90
2022-09-22T07:54:15.610Z,99.90
2022-09-22T07:56:46.774Z,99.90
2022-09-22T07:59:16.775Z,99.90
2022-09-22T08:01:47.741Z,99.90
2022-09-22T08:04:18.967Z,99.90
2022-09-22T08:06:48.730Z,99.90
2022-09-22T08:09:18.319Z,99.90
2022-09-22T08:11:48.835Z,99.90
2022-09-22T08:14:18.688Z,99.90
2022-09-22T08:16:46.926Z,99.90
2022-09-22T08:19:15.700Z,99.90
2022-09-22T08:21:49.330Z,99.90
2022-09-22T08:24:21.870Z,99.90
2022-09-22T08:26:52.460Z,99.90
2022-09-22T08:29:21.051Z,99.90
2022-09-22T08:31:51.437Z,99.90
2022-09-22T08:34:22.466Z,99.90
2022-09-22T08:36:58.803Z,99.90
2022-09-22T08:39:26.754Z,99.90
2022-09-22T08:42:11.919Z,99.90
2022-09-22T08:44:46.591Z,99.90
2022-09-22T08:47:39.459Z,98.00
2022-09-22T08:50:42.835Z,97.90
2022-09-22T08:53:16.194Z,98.20
2022-09-22T08:55:48.223Z,98.50
2022-09-22T08:58:32.598Z,99.10
2022-09-22T09:01:12.739Z,98.80
2022-09-22T09:03:55.325Z,97.30
2022-09-22T09:06:33.925Z,96.20
2022-09-22T09:09:22.169Z,96.00
2022-09-22T09:12:06.048Z,95.20
2022-09-22T09:15:01.375Z,93.50
2022-09-22T09:17:31.573Z,93.30
2022-09-22T09:20:04.783Z,94.20
2022-09-22T09:22:43.690Z,93.60
2022-09-22T09:25:23.325Z,93.20
2022-09-22T09:27:57.206Z,92.00
2022-09-22T09:30:25.327Z,90.90
2022-09-22T09:32:56.420Z,90.60
2022-09-22T09:35:28.506Z,87.40
2022-09-22T09:37:59.155Z,90.00
2022-09-22T09:40:29.006Z,90.00
2022-09-22T09:43:03.262Z,89.50
2022-09-22T09:45:38.370Z,88.40
2022-09-22T09:48:20.373Z,87.50
2022-09-22T09:50:48.342Z,86.30
2022-09-22T09:53:31.247Z,84.10
2022-09-22T09:56:00.611Z,84.00
2022-09-22T09:58:46.241Z,85.20
2022-09-22T10:04:33.255Z,87.20
2022-09-22T10:07:12.910Z,87.40
2022-09-22T10:09:41.517Z,88.30
2022-09-22T10:12:23.633Z,87.00
2022-09-22T10:14:52.851Z,83.40
2022-09-22T10:17:22.767Z,81.20
2022-09-22T10:19:51.701Z,82.90
2022-09-22T10:22:28.286Z,79.30
2022-09-22T10:25:01.443Z,81.00
2022-09-22T10:27:32.595Z,83.40
2022-09-22T10:30:37.189Z,85.00
2022-09-22T10:33:15.435Z,83.40
2022-09-22T10:35:45.634Z,82.70
2022-09-22T10:38:24.759Z,82.20
2022-09-22T10:40:57.896Z,83.40
2022-09-22T10:43:44.110Z,83.90
2022-09-22T10:46:45.310Z,85.10
2022-09-22T10:49:21.211Z,85.90
2022-09-22T10:52:05.300Z,85.00
2022-09-22T10:54:50.295Z,82.60
2022-09-22T10:57:33.753Z,84.00
2022-09-22T11:00:12.325Z,83.70
2022-09-22T11:03:06.543Z,84.50
2022-09-22T11:06:01.385Z,85.00
2022-09-22T11:08:53.356Z,87.20
2022-09-22T11:11:45.351Z,90.50
2022-09-22T11:14:27.889Z,90.90
2022-09-22T11:17:17.794Z,91.60
2022-09-22T11:20:08.865Z,92.60
2022-09-22T11:22:58.933Z,92.50
2022-09-22T11:25:43.399Z,93.60
2022-09-22T11:28:35.936Z,93.20
2022-09-22T11:31:04.012Z,93.50
2022-09-22T11:34:12.260Z,93.20
2022-09-22T11:36:51.565Z,92.70
2022-09-22T11:39:22.066Z,92.60
2022-09-22T11:42:01.175Z,90.50
2022-09-22T11:44:36.849Z,91.70
2022-09-22T11:47:41.591Z,91.20
2022-09-22T11:50:27.544Z,90.80
2022-09-22T11:53:09.509Z,90.40
2022-09-22T11:55:40.977Z,90.20
2022-09-22T11:58:16.217Z,90.60
2022-09-22T12:00:48.674Z,90.60
2022-09-22T12:03:21.327Z,92.70
2022-09-22T12:05:54.993Z,99.90
2022-09-22T12:08:26.791Z,99.90
2022-09-22T12:10:55.298Z,99.90
2022-09-22T12:13:26.402Z,99.90
2022-09-22T12:18:41.663Z,99.90
2022-09-22T12:21:25.466Z,99.90
2022-09-22T12:23:56.121Z,99.90
2022-09-22T12:26:28.442Z,99.90
2022-09-22T12:28:58.808Z,99.90
2022-09-22T12:31:36.039Z,99.90
2022-09-22T12:34:06.790Z,99.90
2022-09-22T12:36:38.263Z,99.90
2022-09-22T12:39:13.302Z,99.90
2022-09-22T12:41:48.023Z,99.90
2022-09-22T12:44:21.127Z,99.90
2022-09-22T12:46:50.294Z,99.90
2022-09-22T12:49:22.537Z,99.90
2022-09-22T12:51:52.452Z,99.90
2022-09-22T12:54:47.894Z,99.90
2022-09-22T12:57:31.323Z,99.90
2022-09-22T13:00:23.124Z,99.90
2022-09-22T13:02:51.603Z,99.90
2022-09-22T13:05:46.530Z,99.90
2022-09-22T13:08:24.094Z,99.90
2022-09-22T13:11:01.150Z,99.90
2022-09-22T13:13:41.106Z,99.90
2022-09-22T13:16:34.562Z,99.90
2022-09-22T13:19:03.549Z,99.90
2022-09-22T13:21:33.415Z,99.90
2022-09-22T13:24:05.082Z,99.90
2022-09-22T13:26:34.889Z,99.90
2022-09-22T13:29:11.390Z,99.90
2022-09-22T13:31:44.609Z,99.90
2022-09-22T13:34:26.523Z,99.90
2022-09-22T13:36:58.223Z,99.90
2022-09-22T13:39:30.774Z,99.90
2022-09-22T13:42:04.534Z,99.90
2022-09-22T13:44:35.848Z,99.90
2022-09-22T13:47:08.217Z,99.90
2022-09-22T13:49:42.244Z,99.90
2022-09-22T13:52:16.323Z,99.90
2022-09-22T13:54:49.545Z,99.90
2022-09-22T13:57:22.392Z,99.90
2022-09-22T13:59:52.590Z,99.90
2022-09-22T14:02:28.092Z,99.90
2022-09-22T14:05:01.605Z,99.90
2022-09-22T14:07:38.342Z,99.90
2022-09-22T14:10:19.358Z,99.90
2022-09-22T14:12:47.431Z,99.90
2022-09-22T14:15:39.699Z,99.90
2022-09-22T14:18:18.877Z,99.90
2022-09-22T14:20:47.732Z,99.90
2022-09-22T14:23:27.941Z,99.90
2022-09-22T14:25:58.802Z,99.90
2022-09-22T14:28:29.697Z,99.90
2022-09-22T14:30:57.864Z,99.90
2022-09-22T14:33:27.696Z,99.70
2022-09-22T14:36:01.760Z,99.90
2022-09-22T14:38:34.380Z,99.60
2022-09-22T14:41:04.341Z,99.20
2022-09-22T14:43:37.857Z,99.50
2022-09-22T14:46:24.603Z,99.40
2022-09-22T14:48:52.893Z,99.00
2022-09-22T14:51:23.016Z,99.30
2022-09-22T14:53:55.427Z,98.90
2022-09-22T14:56:28.919Z,98.40
2022-09-22T14:59:00.149Z,98.00
2022-09-22T15:01:49.784Z,96.80
2022-09-22T15:04:23.139Z,95.70
2022-09-22T15:06:52.678Z,95.70
2022-09-22T15:09:25.883Z,96.20
2022-09-22T15:11:56.938Z,95.90
2022-09-22T15:14:35.301Z,95.80
2022-09-22T15:17:17.527Z,96.00
2022-09-22T15:19:45.496Z,96.00
2022-09-22T15:22:15.060Z,96.40
2022-09-22T15:24:43.097Z,96.70
2022-09-22T15:27:17.714Z,97.20
2022-09-22T15:29:45.768Z,96.90
2022-09-22T15:32:14.187Z,96.40
2022-09-22T15:34:44.759Z,96.90
2022-09-22T15:37:15.657Z,96.90
2022-09-22T15:39:43.763Z,97.10
2022-09-22T15:42:12.300Z,97.20
2022-09-22T15:44:42.030Z,97.70
2022-09-22T15:47:16.576Z,97.90
2022-09-22T15:49:45.122Z,97.50
2022-09-22T15:52:14.301Z,97.60
2022-09-22T15:54:44.156Z,97.60
2022-09-22T15:57:14.931Z,97.00
2022-09-22T15:59:44.310Z,96.90
2022-09-22T16:02:12.910Z,96.80
2022-09-22T16:04:40.856Z,97.10
2022-09-22T16:07:12.397Z,97.90
2022-09-22T16:09:40.494Z,98.30
2022-09-22T16:12:11.065Z,98.50
2022-09-22T16:14:39.908Z,98.50
2022-09-22T16:17:09.212Z,98.90
2022-09-22T16:19:37.160Z,99.50
2022-09-22T16:22:05.898Z,99.90
2022-09-22T16:24:33.915Z,99.90
2022-09-22T16:27:06.033Z,99.90
2022-09-22T16:29:37.395Z,99.90
2022-09-22T16:32:05.571Z,99.90
2022-09-22T16:34:35.986Z,99.90
2022-09-22T16:37:04.062Z,99.90
2022-09-22T16:39:32.021Z,99.90
2022-09-22T16:41:59.971Z,99.90
2022-09-22T16:44:27.958Z,99.90
2022-09-22T16:46:56.483Z,99.90
2022-09-22T16:49:25.068Z,99.90
2022-09-22T16:51:55.102Z,99.90
2022-09-22T16:54:24.704Z,99.90
2022-09-22T16:56:53.859Z,99.90
2022-09-22T16:59:24.129Z,99.90
2022-09-22T17:01:52.395Z,99.90
2022-09-22T17:04:20.791Z,99.90
2022-09-22T17:06:49.587Z,99.90
2022-09-22T17:09:19.374Z,99.90
2022-09-22T17:11:49.193Z,99.90
2022-09-22T17:14:21.090Z,99.90
2022-09-22T17:16:52.047Z,99.90
2022-09-22T17:19:22.114Z,99.90
2022-09-22T17:21:52.780Z,99.90
2022-09-22T17:24:22.997Z,99.90
2022-09-22T17:26:53.197Z,99.90
2022-09-22T17:29:23.404Z,99.90
2022-09-22T17:31:52.127Z,99.90
2022-09-22T17:34:20.079Z,99.90
2022-09-22T17:36:48.017Z,99.90
2022-09-22T17:39:15.956Z,99.90
2022-09-22T17:41:47.011Z,99.90
2022-09-22T17:44:17.030Z,99.90
2022-09-22T17:46:58.926Z,99.90
2022-09-22T17:49:44.189Z,99.90
2022-09-22T17:52:30.072Z,99.90
2022-09-22T17:55:08.185Z,99.90
2022-09-22T17:57:39.190Z,99.90
2022-09-22T18:00:09.535Z,99.90
2022-09-22T18:02:38.823Z,99.90
2022-09-22T18:05:08.079Z,99.90
2022-09-22T18:07:38.218Z,99.90
2022-09-22T18:10:07.031Z,99.90
2022-09-22T18:12:35.584Z,99.90
2022-09-22T18:15:05.800Z,99.90
2022-09-22T18:17:41.525Z,99.90
2022-09-22T18:20:11.818Z,99.90
2022-09-22T18:22:40.176Z,99.90
2022-09-22T18:25:10.505Z,99.90
2022-09-22T18:27:40.086Z,99.90
2022-09-22T18:30:14.239Z,99.90
2022-09-22T18:32:43.993Z,99.90
2022-09-22T18:35:12.970Z,99.90
2022-09-22T18:37:41.750Z,99.90
2022-09-22T18:40:12.459Z,99.90
2022-09-22T18:42:41.509Z,99.90
2022-09-22T18:45:12.503Z,99.90
2022-09-22T18:47:40.928Z,99.90
2022-09-22T18:50:10.122Z,99.90
2022-09-22T18:52:42.598Z,99.90
2022-09-22T18:55:17.263Z,99.90
2022-09-22T18:57:47.389Z,99.90
2022-09-22T19:00:20.871Z,99.90
2022-09-22T19:02:49.123Z,99.90
2022-09-22T19:05:17.406Z,99.90
2022-09-22T19:07:47.730Z,99.90
2022-09-22T19:10:20.526Z,99.90
2022-09-22T19:12:48.636Z,99.90
2022-09-22T19:15:19.435Z,99.90
2022-09-22T19:17:49.612Z,99.90
2022-09-22T19:20:21.045Z,99.90
2022-09-22T19:22:50.515Z,99.90
2022-09-22T19:25:20.074Z,99.90
2022-09-22T19:27:48.073Z,99.90
2022-09-22T19:30:21.816Z,99.90
2022-09-22T19:32:51.073Z,99.90
2022-09-22T19:35:19.593Z,99.90
2022-09-22T19:37:47.566Z,99.90
2022-09-22T19:40:18.667Z,99.90
2022-09-22T19:42:47.683Z,99.90
2022-09-22T19:45:17.162Z,99.90
2022-09-22T19:47:45.103Z,99.90
2022-09-22T19:50:13.195Z,99.90
2022-09-22T19:52:41.136Z,99.90
2022-09-22T19:55:11.516Z,99.90
2022-09-22T19:57:41.329Z,99.90
2022-09-22T20:00:10.821Z,99.90
2022-09-22T20:02:40.157Z,99.90
2022-09-22T20:05:19.001Z,99.90
2022-09-22T20:07:46.935Z,99.90
2022-09-22T20:10:15.035Z,99.90
2022-09-22T20:12:42.998Z,99.90
2022-09-22T20:15:14.888Z,99.90
2022-09-22T20:17:45.998Z,99.90
2022-09-22T20:20:14.665Z,99.90
2022-09-22T20:22:42.747Z,99.90
2022-09-22T20:25:22.517Z,99.90
2022-09-22T20:27:50.972Z,99.90
2022-09-22T20:30:19.315Z,99.90
2022-09-22T20:32:48.982Z,99.90
2022-09-22T20:35:19.106Z,99.90
2022-09-22T20:37:47.267Z,99.90
2022-09-22T20:40:18.637Z,99.90
2022-09-22T20:42:47.009Z,99.90
2022-09-22T20:45:15.443Z,99.90
2022-09-22T20:47:43.532Z,99.90
2022-09-22T20:50:13.381Z,99.90
2022-09-22T20:52:42.506Z,99.90
2022-09-22T20:55:11.728Z,99.90
2022-09-22T20:57:40.328Z,99.90
2022-09-22T21:00:09.914Z,99.90
2022-09-22T21:02:38.864Z,99.90
2022-09-22T21:05:07.288Z,99.90
2022-09-22T21:07:36.763Z,99.90
2022-09-22T21:10:22.844Z,99.90
2022-09-22T21:12:55.001Z,99.90
2022-09-22T21:15:23.318Z,99.90
2022-09-22T21:17:52.718Z,99.90
2022-09-22T21:20:21.624Z,99.90
2022-09-22T21:22:52.280Z,99.90
2022-09-22T21:25:20.397Z,99.90
2022-09-22T21:27:48.521Z,99.90
2022-09-22T21:30:16.753Z,99.90
2022-09-22T21:32:45.047Z,99.90
2022-09-22T21:35:16.750Z,99.90
2022-09-22T21:37:45.107Z,99.90
2022-09-22T21:40:14.758Z,99.90
2022-09-22T21:42:42.867Z,99.90
2022-09-22T21:45:12.938Z,99.90
2022-09-22T21:47:41.043Z,99.90
2022-09-22T21:50:10.118Z,99.90
2022-09-22T21:52:38.574Z,99.90
2022-09-22T21:55:07.712Z,99.90
2022-09-22T21:57:37.072Z,99.90
2022-09-22T22:00:07.105Z,99.90
2022-09-22T22:02:55.062Z,99.90
2022-09-22T22:05:23.006Z,99.90
2022-09-22T22:07:51.049Z,99.90
2022-09-22T22:10:19.206Z,99.90
2022-09-22T22:12:48.551Z,99.90
2022-09-22T22:15:16.619Z,99.90
2022-09-22T22:17:44.631Z,99.90
2022-09-22T22:20:12.587Z,99.90
2022-09-22T22:22:40.532Z,99.90
2022-09-22T22:25:13.706Z,99.90
2022-09-22T22:27:44.659Z,99.90
2022-09-22T22:30:14.593Z,99.90
2022-09-22T22:32:43.131Z,99.90
2022-09-22T22:35:11.688Z,99.90
2022-09-22T22:37:39.945Z,99.90
2022-09-22T22:40:08.848Z,99.90
2022-09-22T22:42:36.880Z,99.90
2022-09-22T22:45:06.565Z,99.90
2022-09-22T22:47:35.892Z,99.90
2022-09-22T22:50:03.826Z,99.90
2022-09-22T22:52:31.783Z,99.90
2022-09-22T22:54:59.731Z,99.90
2022-09-22T22:57:28.623Z,99.90
2022-09-22T22:59:57.123Z,99.90
2022-09-22T23:02:25.681Z,99.90
2022-09-22T23:04:58.646Z,99.90
2022-09-22T23:07:26.658Z,99.90
2022-09-22T23:10:06.282Z,99.90
2022-09-22T23:12:35.142Z,99.90
2022-09-22T23:15:03.290Z,99.90
2022-09-22T23:17:32.034Z,99.90
2022-09-22T23:20:01.358Z,99.90
2022-09-22T23:22:30.592Z,99.90
2022-09-22T23:24:58.723Z,99.90
2022-09-22T23:27:27.193Z,99.90
2022-09-22T23:29:57.199Z,99.90
2022-09-22T23:32:25.588Z,99.90
2022-09-22T23:34:53.782Z,99.90
2022-09-22T23:37:24.834Z,99.90
2022-09-22T23:39:53.107Z,99.90
2022-09-22T23:42:21.076Z,99.90
2022-09-22T23:44:49.140Z,99.90
2022-09-22T23:47:17.147Z,99.90
2022-09-22T23:49:45.721Z,99.90
2022-09-22T23:52:13.696Z,99.90
2022-09-22T23:54:44.274Z,99.90
2022-09-22T23:57:12.230Z,99.90
2022-09-22T23:59:40.180Z,99.90
